Time;durP1;ratioP1;P1;durP2;ratioP2;P2;SDS_P1;SDS_P2;PMS_P1;PMS_P2;Temp;Humidity;BMP_temperature;BMP_pressure;BME280_temperature;BME280_humidity;BME280_pressure;Samples;Min_cycle;Max_cycle;Signal;HPM_P1;HPM_P2
2021/06/13 00:00:19;;;;;;;6.38;4.47;;;;;;;15.21;74.28;101108.09;2088172;28;20474;-61
2021/06/13 00:01:20;;;;;;;10.35;4.47;;;;;;;15.18;75.19;101102.97;2086689;28;20218;-61
2021/06/13 00:02:20;;;;;;;7.93;4.33;;;;;;;15.14;75.20;101109.22;2086186;28;20461;-61
2021/06/13 00:03:20;;;;;;;6.90;4.20;;;;;;;15.12;75.08;101103.19;2086213;28;20385;-61
2021/06/13 00:04:21;;;;;;;6.90;4.70;;;;;;;15.06;75.80;101107.75;2086870;28;20036;-61
2021/06/13 00:05:22;;;;;;;11.65;4.65;;;;;;;15.02;75.34;101106.13;2086090;28;20039;-61
2021/06/13 00:06:22;;;;;;;8.00;4.40;;;;;;;15.02;75.44;101110.53;2086842;28;20839;-60
2021/06/13 00:07:22;;;;;;;6.47;4.57;;;;;;;15.02;75.64;101110.53;2086117;28;20027;-61
2021/06/13 00:08:23;;;;;;;7.60;4.57;;;;;;;14.96;75.38;101102.84;2086712;28;20086;-61
2021/06/13 00:09:23;;;;;;;5.80;4.40;;;;;;;15.01;75.20;101104.41;2086208;28;20094;-61
2021/06/13 00:10:24;;;;;;;6.47;4.67;;;;;;;15.00;75.01;101104.47;2086584;28;20051;-61
2021/06/13 00:11:24;;;;;;;8.10;5.00;;;;;;;14.97;75.68;101107.19;2086501;28;20036;-61
2021/06/13 00:12:24;;;;;;;9.13;4.40;;;;;;;14.98;75.86;101107.16;2086163;28;20033;-61
2021/06/13 00:13:26;;;;;;;6.77;4.53;;;;;;;14.93;75.89;101104.69;2086639;28;20381;-61
2021/06/13 00:14:27;;;;;;;7.13;4.75;;;;;;;14.90;76.08;101104.78;2086305;28;20409;-60
2021/06/13 00:15:27;;;;;;;8.75;4.80;;;;;;;14.97;74.95;101107.19;2086689;28;20056;-61
2021/06/13 00:16:28;;;;;;;7.07;4.63;;;;;;;14.97;74.58;101107.19;2085721;28;20033;-61
2021/06/13 00:17:28;;;;;;;7.63;4.83;;;;;;;14.92;74.59;101110.84;2085957;28;20044;-61
2021/06/13 00:18:28;;;;;;;10.93;4.67;;;;;;;14.91;75.00;101101.25;2086544;28;20837;-61
2021/06/13 00:19:29;;;;;;;6.83;4.07;;;;;;;14.94;75.10;101103.75;2081773;28;20104;-61
2021/06/13 00:20:29;;;;;;;9.50;4.90;;;;;;;14.88;75.09;101109.22;2084708;28;21089;-61
2021/06/13 00:21:29;;;;;;;8.53;4.60;;;;;;;14.90;74.88;101110.03;2086578;28;20021;-61
2021/06/13 00:22:30;;;;;;;9.27;4.40;;;;;;;14.88;75.04;101111.84;2086296;28;20059;-61
2021/06/13 00:23:30;;;;;;;10.60;4.90;;;;;;;14.89;75.57;101112.72;2086636;28;20647;-61
2021/06/13 00:24:30;;;;;;;6.53;4.50;;;;;;;14.85;75.96;101113.72;2086168;28;20044;-61
2021/06/13 00:25:31;;;;;;;5.73;4.27;;;;;;;14.82;75.51;101112.06;2085538;28;20065;-61
2021/06/13 00:26:31;;;;;;;14.13;4.80;;;;;;;14.78;76.03;101110.44;2086472;28;20025;-61
2021/06/13 00:27:32;;;;;;;14.57;4.40;;;;;;;14.75;76.32;101107.91;2086300;28;20271;-61
2021/06/13 00:28:32;;;;;;;7.57;4.50;;;;;;;14.75;76.31;101110.53;2086540;28;20025;-60
2021/06/13 00:29:32;;;;;;;11.90;4.93;;;;;;;14.74;76.64;101111.47;2086329;28;20044;-61
2021/06/13 00:30:33;;;;;;;8.80;5.00;;;;;;;14.75;75.89;101111.41;2085933;28;20814;-61
2021/06/13 00:31:33;;;;;;;8.55;4.45;;;;;;;14.73;76.11;101112.38;2083895;28;20025;-60
2021/06/13 00:32:34;;;;;;;11.48;4.72;;;;;;;14.71;76.20;101117.66;2086908;28;20907;-61
2021/06/13 00:33:34;;;;;;;7.40;4.57;;;;;;;14.72;76.26;101115.91;2084951;28;20044;-60
2021/06/13 00:34:35;;;;;;;9.83;4.80;;;;;;;14.71;76.14;101114.19;2082097;28;20037;-61
2021/06/13 00:35:35;;;;;;;11.90;4.97;;;;;;;14.75;75.58;101115.78;2085610;28;20029;-61
2021/06/13 00:36:35;;;;;;;9.30;4.45;;;;;;;14.74;75.22;101116.72;2084252;28;20389;-61
2021/06/13 00:37:36;;;;;;;7.87;4.00;;;;;;;14.70;74.95;101115.09;2084015;28;20029;-61
2021/06/13 00:38:36;;;;;;;11.87;4.53;;;;;;;14.70;75.41;101112.47;2085618;28;20159;-61
2021/06/13 00:39:37;;;;;;;5.63;4.43;;;;;;;14.70;75.86;101122.94;2083721;28;20031;-60
2021/06/13 00:40:37;;;;;;;7.70;4.50;;;;;;;14.73;74.91;101122.88;2086098;28;20025;-61
2021/06/13 00:41:37;;;;;;;6.77;4.23;;;;;;;14.70;75.28;101115.09;2085615;28;20436;-61
2021/06/13 00:42:38;;;;;;;10.17;4.50;;;;;;;14.64;75.51;101118.72;2084549;28;20024;-61
2021/06/13 00:43:38;;;;;;;8.30;4.63;;;;;;;14.63;75.44;101115.25;2086252;28;20059;-61
2021/06/13 00:44:38;;;;;;;7.73;4.17;;;;;;;14.63;75.45;101123.13;2086325;28;20688;-60
2021/06/13 00:45:39;;;;;;;6.50;3.97;;;;;;;14.63;75.19;101130.13;2085877;28;20025;-61
2021/06/13 00:46:40;;;;;;;9.40;4.40;;;;;;;14.65;74.83;101117.81;2085482;28;20099;-61
2021/06/13 00:47:41;;;;;;;;;;;;;;;14.62;75.13;101125.78;2086309;28;20032;-61
2021/06/13 00:48:41;;;;;;;7.05;4.05;;;;;;;14.66;74.79;101126.53;2086513;28;19912;-61
2021/06/13 00:49:41;;;;;;;8.50;3.83;;;;;;;14.68;74.90;101116.88;2082355;28;20036;-61
2021/06/13 00:50:48;;;;;;;6.73;4.00;;;;;;;14.62;74.64;101116.16;2085766;28;20033;-61
2021/06/13 00:51:48;;;;;;;7.68;3.83;;;;;;;14.59;74.44;101120.66;2079623;28;20407;-61
2021/06/13 00:52:48;;;;;;;11.00;4.20;;;;;;;14.59;74.34;101118.88;2085194;28;20106;-61
2021/06/13 00:53:49;;;;;;;8.63;4.13;;;;;;;14.59;74.56;101121.50;2086334;28;20501;-60
2021/06/13 00:54:49;;;;;;;9.20;4.20;;;;;;;14.57;74.24;101123.31;2082654;28;20032;-61
2021/06/13 00:55:49;;;;;;;6.57;4.10;;;;;;;14.56;74.26;101120.75;2085971;28;20592;-61
2021/06/13 00:56:50;;;;;;;6.93;3.93;;;;;;;14.52;74.53;101124.38;2081594;28;21390;-61
2021/06/13 00:57:50;;;;;;;10.63;4.03;;;;;;;14.49;74.87;101127.94;2086270;28;20093;-61
2021/06/13 00:58:50;;;;;;;8.27;4.07;;;;;;;14.47;75.21;101122.75;2086050;28;20544;-62
2021/06/13 00:59:51;;;;;;;8.27;3.90;;;;;;;14.43;75.71;101130.78;2086568;28;20025;-61
2021/06/13 01:00:51;;;;;;;9.53;5.40;;;;;;;14.37;75.38;101126.56;2086295;28;20086;-61
2021/06/13 01:01:52;;;;;;;8.20;4.20;;;;;;;14.36;75.73;101130.09;2084957;28;21085;-62
2021/06/13 01:02:52;;;;;;;7.80;4.40;;;;;;;14.31;75.78;101127.63;2085493;28;20048;-61
2021/06/13 01:03:52;;;;;;;9.60;4.67;;;;;;;14.31;76.20;101127.63;2086231;28;20033;-61
2021/06/13 01:04:53;;;;;;;8.67;4.73;;;;;;;14.25;76.16;101130.44;2086293;28;20040;-61
2021/06/13 01:05:53;;;;;;;7.73;5.87;;;;;;;14.28;75.96;101127.72;2085818;28;20087;-61
2021/06/13 01:07:13;;;;;;;8.53;4.60;;;;;;;14.22;75.83;101138.41;2086304;28;20029;-61
2021/06/13 01:08:28;;;;;;;5.53;3.97;;;;;;;14.18;76.63;101126.28;2085818;28;20473;-61
2021/06/13 01:09:33;;;;;;;9.75;4.05;;;;;;;14.15;76.56;101142.13;2084159;28;20301;-60
2021/06/13 01:10:45;;;;;;;8.02;3.95;;;;;;;14.15;76.20;101139.50;2085978;28;20060;-60
2021/06/13 01:11:54;;;;;;;8.63;4.20;;;;;;;14.10;76.54;101141.38;2086274;28;20071;-60
2021/06/13 01:13:05;;;;;;;5.97;4.18;;;;;;;14.08;76.41;101137.94;2085690;28;20135;-60
2021/06/13 01:14:15;;;;;;;5.57;3.70;;;;;;;14.08;76.58;101136.19;2082359;28;20120;-60
2021/06/13 01:15:18;;;;;;;5.95;4.00;;;;;;;14.06;76.81;101137.16;2086426;28;20020;-60
2021/06/13 01:16:46;;;;;;;7.97;3.95;;;;;;;14.03;76.49;101147.72;2086061;28;20100;-60
2021/06/13 01:18:05;;;;;;;6.85;3.63;;;;;;;14.04;76.57;101133.72;2086325;28;20063;-59
2021/06/13 01:19:28;;;;;;;8.30;4.35;;;;;;;13.97;76.77;101143.50;2081610;28;20225;-60
2021/06/13 01:20:43;;;;;;;7.43;3.75;;;;;;;13.96;77.06;101141.78;2059913;28;20043;-60
2021/06/13 01:21:50;;;;;;;5.97;3.58;;;;;;;13.94;76.93;101143.59;2085787;28;20029;-60
2021/06/13 01:23:08;;;;;;;8.07;4.10;;;;;;;13.93;76.78;101142.75;2084570;28;20470;-61
2021/06/13 01:24:25;;;;;;;11.52;3.83;;;;;;;13.90;76.84;101144.59;2085899;28;20064;-60
2021/06/13 01:25:44;;;;;;;6.75;4.05;;;;;;;13.87;76.80;101142.06;2086040;28;20048;-60
2021/06/13 01:27:16;;;;;;;10.52;3.72;;;;;;;13.85;76.77;101140.34;2085489;28;20029;-60
2021/06/13 01:28:53;;;;;;;8.15;3.80;;;;;;;13.85;76.99;101139.50;2081875;28;20451;-60
2021/06/13 01:29:55;;;;;;;6.55;3.60;;;;;;;13.81;76.93;101141.31;2084683;28;20021;-60
2021/06/13 01:30:58;;;;;;;9.63;4.18;;;;;;;13.78;76.91;101143.16;2086892;28;20024;-60
2021/06/13 01:32:04;;;;;;;7.32;4.03;;;;;;;13.73;77.47;101140.69;2082236;28;20112;-60
2021/06/13 01:33:11;;;;;;;10.82;3.75;;;;;;;13.71;78.08;101132.03;2084261;28;20028;-60
2021/06/13 01:34:17;;;;;;;7.65;3.55;;;;;;;13.69;78.08;101139.91;2082622;28;20059;-61
2021/06/13 01:35:23;;;;;;;11.13;3.83;;;;;;;13.67;77.87;101140.88;2084816;28;20512;-60
2021/06/13 01:36:25;;;;;;;7.28;4.10;;;;;;;13.59;78.25;101138.47;2085563;28;20032;-60
2021/06/13 01:37:27;;;;;;;8.13;4.30;;;;;;;13.62;78.40;101141.00;2084729;28;20028;-61
2021/06/13 01:38:30;;;;;;;9.82;4.07;;;;;;;13.58;78.24;101146.38;2084322;28;20021;-60
2021/06/13 01:39:33;;;;;;;8.98;3.85;;;;;;;13.54;79.10;101141.19;2085267;28;20025;-61
2021/06/13 01:40:35;;;;;;;7.95;4.18;;;;;;;13.52;78.65;101142.16;2087702;28;20747;-61
2021/06/13 01:41:37;;;;;;;11.40;4.20;;;;;;;13.50;78.99;101144.81;2087356;28;20134;-60
2021/06/13 01:42:41;;;;;;;8.30;4.30;;;;;;;13.48;79.39;101144.00;2087561;28;20056;-60
2021/06/13 01:43:42;;;;;;;8.80;4.22;;;;;;;13.50;79.04;101138.72;2084999;28;20029;-61
2021/06/13 01:44:45;;;;;;;8.88;4.22;;;;;;;13.45;78.89;101138.00;2086635;28;20044;-61
2021/06/13 01:45:48;;;;;;;6.72;3.70;;;;;;;13.48;79.05;101135.28;2086712;28;20032;-61
2021/06/13 01:46:50;;;;;;;7.78;3.90;;;;;;;13.48;78.97;101138.75;2086111;28;20090;-61
2021/06/13 01:47:51;;;;;;;;;;;;;;;13.48;79.02;101137.88;2087413;28;20029;-61
2021/06/13 01:48:53;;;;;;;10.43;4.30;;;;;;;13.48;79.16;101140.50;2085745;28;19924;-60
2021/06/13 01:49:55;;;;;;;9.10;4.15;;;;;;;13.46;78.90;101131.84;2087380;28;20275;-60
2021/06/13 01:50:58;;;;;;;;;;;;;;;13.43;79.14;101134.56;2087307;28;20025;-61
2021/06/13 01:51:59;;;;;;;8.90;4.05;;;;;;;13.37;79.14;101135.53;2081514;28;19912;-60
2021/06/13 01:53:02;;;;;;;10.63;4.40;;;;;;;13.36;79.84;101132.06;2087238;28;20554;-61
2021/06/13 01:54:04;;;;;;;11.13;4.00;;;;;;;13.38;79.11;101132.88;2084061;28;20112;-61
2021/06/13 01:55:07;;;;;;;9.77;4.07;;;;;;;13.32;79.36;101132.19;2086737;28;20025;-60
2021/06/13 01:56:11;;;;;;;9.07;4.15;;;;;;;13.37;79.78;101139.00;2084418;28;20016;-60
2021/06/13 01:57:13;;;;;;;11.43;3.83;;;;;;;13.29;79.68;101138.34;2087111;28;20109;-60
2021/06/13 01:58:15;;;;;;;9.40;4.28;;;;;;;13.25;80.60;101134.13;2087293;28;20086;-60
2021/06/13 01:59:18;;;;;;;10.32;4.10;;;;;;;13.22;80.12;101135.06;2087569;28;20640;-61
2021/06/13 02:00:19;;;;;;;7.45;3.75;;;;;;;13.20;79.80;101142.09;2087766;28;20016;-61
2021/06/13 02:01:21;;;;;;;8.48;3.90;;;;;;;13.14;80.45;101144.00;2087832;28;20112;-61
2021/06/13 02:02:25;;;;;;;12.25;4.30;;;;;;;13.14;80.60;101138.78;2086957;28;20134;-61
2021/06/13 02:03:25;;;;;;;9.65;4.00;;;;;;;13.06;80.57;101139.84;2087512;28;20021;-61
2021/06/13 02:04:28;;;;;;;9.90;3.53;;;;;;;13.03;80.70;101136.44;2087213;28;20039;-60
2021/06/13 02:05:30;;;;;;;8.52;3.92;;;;;;;13.04;80.94;101136.38;2087621;28;20032;-61
2021/06/13 02:06:34;;;;;;;9.93;4.07;;;;;;;13.05;81.03;101137.25;2087090;28;20427;-61
2021/06/13 02:07:36;;;;;;;11.70;4.25;;;;;;;13.02;81.25;101132.09;2086971;28;20037;-61
2021/06/13 02:08:39;;;;;;;6.78;4.22;;;;;;;12.98;81.21;101136.53;2086522;28;20042;-61
2021/06/13 02:09:43;;;;;;;9.75;3.60;;;;;;;12.97;81.07;101133.97;2087934;28;20029;-61
2021/06/13 02:10:46;;;;;;;10.20;4.00;;;;;;;12.96;80.88;101127.88;2087342;28;20056;-61
2021/06/13 02:11:48;;;;;;;7.80;4.93;;;;;;;12.96;80.94;101134.84;2087341;28;20036;-61
2021/06/13 02:12:50;;;;;;;11.20;4.43;;;;;;;12.95;81.09;101136.63;2087060;28;20029;-61
2021/06/13 02:13:50;;;;;;;10.25;4.75;;;;;;;12.96;81.33;101130.50;2087031;28;20099;-61
2021/06/13 02:14:51;;;;;;;7.37;4.73;;;;;;;12.95;81.22;101136.63;2087034;28;20045;-61
2021/06/13 02:15:54;;;;;;;6.57;4.20;;;;;;;12.91;81.52;101132.34;2087442;28;20056;-61
2021/06/13 02:16:56;;;;;;;12.23;4.22;;;;;;;12.91;81.57;101132.34;2087177;28;20654;-61
2021/06/13 02:17:58;;;;;;;7.22;4.18;;;;;;;12.90;81.48;101134.13;2086229;28;20102;-61
2021/06/13 02:18:59;;;;;;;6.70;4.15;;;;;;;12.98;81.10;101130.44;2086359;28;20029;-61
2021/06/13 02:20:00;;;;;;;8.35;4.10;;;;;;;12.90;81.21;101136.75;2087605;28;20021;-61
2021/06/13 02:21:07;;;;;;;9.73;4.70;;;;;;;12.89;81.32;101139.38;2086958;28;20043;-61
2021/06/13 02:22:10;;;;;;;8.88;4.20;;;;;;;12.85;81.47;101141.22;2086953;28;20120;-61
2021/06/13 02:23:11;;;;;;;7.95;5.13;;;;;;;12.82;81.91;101140.44;2087282;28;20162;-61
2021/06/13 02:24:11;;;;;;;7.90;4.70;;;;;;;12.79;82.11;101140.50;2087422;28;20098;-61
2021/06/13 02:25:12;;;;;;;8.38;4.50;;;;;;;12.77;82.46;101151.00;2087159;28;20036;-61
2021/06/13 02:26:14;;;;;;;8.48;4.55;;;;;;;12.74;82.31;101144.09;2086979;28;20044;-61
2021/06/13 02:27:18;;;;;;;7.30;3.92;;;;;;;12.69;82.43;101153.81;2086891;28;20622;-61
2021/06/13 02:28:19;;;;;;;10.32;4.80;;;;;;;12.67;82.45;101145.16;2087601;28;20032;-61
2021/06/13 02:29:19;;;;;;;7.78;4.18;;;;;;;12.68;82.82;101146.88;2086895;28;20024;-61
2021/06/13 02:30:21;;;;;;;7.82;4.65;;;;;;;12.70;82.49;101150.28;2087083;28;20282;-61
2021/06/13 02:31:26;;;;;;;7.90;4.15;;;;;;;12.64;82.93;101147.84;2087146;28;20368;-60
2021/06/13 02:32:29;;;;;;;7.07;3.95;;;;;;;12.66;82.62;101146.03;2086928;28;20124;-61
2021/06/13 02:33:31;;;;;;;7.93;4.38;;;;;;;12.63;82.83;101151.34;2087343;28;20024;-60
2021/06/13 02:34:31;;;;;;;7.93;3.92;;;;;;;12.63;82.57;101145.25;2086328;28;20027;-61
2021/06/13 02:35:32;;;;;;;7.23;4.17;;;;;;;12.60;82.39;101140.94;2086966;28;20056;-61
2021/06/13 02:36:32;;;;;;;8.32;3.92;;;;;;;12.59;82.28;101139.22;2086710;28;20021;-62
2021/06/13 02:37:33;;;;;;;11.07;4.40;;;;;;;12.55;82.63;101153.28;2086693;28;20130;-62
2021/06/13 02:38:34;;;;;;;8.70;4.07;;;;;;;12.58;81.84;101148.00;2087059;28;20020;-61
2021/06/13 02:39:34;;;;;;;7.50;3.97;;;;;;;12.58;81.95;101148.00;2086643;28;20031;-61
2021/06/13 02:40:34;;;;;;;7.90;4.10;;;;;;;12.56;82.54;101147.16;2087081;28;20393;-61
2021/06/13 02:41:35;;;;;;;7.43;4.03;;;;;;;12.53;82.28;101144.59;2086678;28;20090;-61
2021/06/13 02:42:36;;;;;;;11.23;4.40;;;;;;;12.55;81.97;101148.06;2086913;28;20370;-62
2021/06/13 02:43:36;;;;;;;9.27;4.22;;;;;;;12.55;81.97;101145.44;2092005;28;20275;-61
2021/06/13 02:44:37;;;;;;;9.73;3.53;;;;;;;12.54;81.75;101141.94;2086392;28;20886;-61
2021/06/13 02:45:37;;;;;;;7.60;4.17;;;;;;;12.54;81.84;101146.34;2086908;28;20465;-61
2021/06/13 02:46:38;;;;;;;10.27;4.13;;;;;;;12.52;81.96;101148.13;2086747;28;20067;-60
2021/06/13 02:47:38;;;;;;;11.10;4.10;;;;;;;12.54;81.55;101149.78;2086990;28;20558;-60
2021/06/13 02:48:39;;;;;;;9.85;3.63;;;;;;;12.51;81.53;101156.84;2085777;28;20021;-59
2021/06/13 02:49:39;;;;;;;7.90;3.70;;;;;;;12.52;81.50;101153.34;2086810;28;20044;-60
2021/06/13 02:50:40;;;;;;;9.48;4.22;;;;;;;12.49;81.90;101156.06;2086814;28;20036;-60
2021/06/13 02:52:02;;;;;;;9.07;4.10;;;;;;;12.45;82.19;101155.22;2086910;28;20486;-61
2021/06/13 02:53:22;;;;;;;9.77;4.10;;;;;;;12.48;81.87;101159.56;2086217;28;20410;-60
2021/06/13 02:54:25;;;;;;;8.07;3.72;;;;;;;12.47;81.98;101166.53;2083692;28;20044;-60
2021/06/13 02:55:50;;;;;;;10.50;3.92;;;;;;;12.46;81.63;101162.19;2086669;28;20033;-61
2021/06/13 02:56:55;;;;;;;8.00;3.78;;;;;;;12.45;82.13;101163.06;2085690;28;20138;-60
2021/06/13 02:57:59;;;;;;;6.55;3.80;;;;;;;12.41;81.79;101162.28;2087211;28;20036;-60
2021/06/13 02:59:36;;;;;;;11.07;4.13;;;;;;;12.38;82.21;101167.59;2087100;28;20448;-60
2021/06/13 03:00:37;;;;;;;10.05;3.50;;;;;;;12.36;82.33;101164.16;2080028;28;20037;-61
2021/06/13 03:01:43;;;;;;;7.50;4.27;;;;;;;12.37;82.66;101163.28;2086692;28;20028;-60
2021/06/13 03:02:50;;;;;;;10.10;4.05;;;;;;;12.40;82.88;101167.56;2087162;28;20393;-60
2021/06/13 03:03:52;;;;;;;9.38;4.28;;;;;;;12.40;82.42;101157.94;2085037;28;20028;-60
2021/06/13 03:04:53;;;;;;;8.52;4.03;;;;;;;12.38;82.63;101165.00;2086916;28;20032;-60
2021/06/13 03:05:55;;;;;;;;;;;;;;;12.40;82.72;101167.56;2087366;28;20029;-60
2021/06/13 03:06:58;;;;;;;7.05;4.10;;;;;;;12.39;82.63;101166.69;2088997;28;19999;-60
2021/06/13 03:07:59;;;;;;;9.55;3.85;;;;;;;12.38;82.63;101161.50;2090312;28;20036;-60
2021/06/13 03:09:00;;;;;;;10.47;3.67;;;;;;;12.36;82.32;101164.16;2087237;28;20025;-61
2021/06/13 03:10:02;;;;;;;10.88;4.20;;;;;;;12.41;82.53;101172.75;2088258;28;20042;-61
2021/06/13 03:11:04;;;;;;;10.90;4.00;;;;;;;12.41;81.95;101170.13;2090039;28;20389;-61
2021/06/13 03:12:05;;;;;;;8.45;3.72;;;;;;;12.37;82.34;101173.72;2089466;28;20029;-60
2021/06/13 03:13:06;;;;;;;8.38;3.95;;;;;;;12.38;82.12;101171.97;2086798;28;20132;-61
2021/06/13 03:14:07;;;;;;;7.75;3.97;;;;;;;12.36;82.70;101168.50;2087194;28;20086;-60
2021/06/13 03:15:09;;;;;;;10.73;4.03;;;;;;;12.35;82.03;101174.63;2086805;28;20025;-60
2021/06/13 03:16:11;;;;;;;9.48;3.90;;;;;;;12.38;82.40;101179.81;2085086;28;20093;-60
2021/06/13 03:17:14;;;;;;;9.02;3.83;;;;;;;12.39;82.35;101177.16;2086868;28;20029;-60
2021/06/13 03:18:15;;;;;;;6.82;3.72;;;;;;;12.39;82.53;101179.75;2089101;28;20082;-60
2021/06/13 03:19:16;;;;;;;;;;;;;;;12.37;82.49;101178.97;2087523;28;20021;-60
2021/06/13 03:20:17;;;;;;;10.10;3.53;;;;;;;12.39;82.01;101190.22;2083928;28;20289;-61
2021/06/13 03:21:19;;;;;;;7.68;3.90;;;;;;;12.37;82.50;101181.56;2087628;28;20029;-60
2021/06/13 03:22:20;;;;;;;8.07;4.00;;;;;;;12.40;82.11;101185.88;2087976;28;20025;-61
2021/06/13 03:23:21;;;;;;;8.05;3.70;;;;;;;12.41;82.21;101190.19;2088035;28;20079;-61
2021/06/13 03:24:23;;;;;;;9.32;3.53;;;;;;;12.39;82.16;101190.22;2088207;28;20023;-60
2021/06/13 03:25:24;;;;;;;6.60;3.63;;;;;;;12.36;81.93;101185.06;2088650;28;20024;-61
2021/06/13 03:26:28;;;;;;;8.15;3.80;;;;;;;12.39;81.72;101192.81;2087951;28;20048;-61
2021/06/13 03:27:28;;;;;;;7.00;3.88;;;;;;;12.43;81.49;101197.09;2085622;28;20118;-61
2021/06/13 03:28:33;;;;;;;8.73;3.88;;;;;;;12.44;81.61;101198.84;2083267;28;20025;-61
2021/06/13 03:29:39;;;;;;;7.55;3.65;;;;;;;12.41;82.01;101195.44;2082067;28;20494;-61
2021/06/13 03:30:40;;;;;;;7.75;3.72;;;;;;;12.48;81.90;101204.84;2086330;28;20112;-61
2021/06/13 03:31:40;;;;;;;6.20;3.63;;;;;;;12.50;81.22;101192.59;2086094;28;20036;-61
2021/06/13 03:32:42;;;;;;;8.18;3.97;;;;;;;12.48;81.26;101194.38;2087571;28;20421;-61
2021/06/13 03:33:43;;;;;;;9.52;3.70;;;;;;;12.54;80.98;101198.63;2087194;28;20035;-61
2021/06/13 03:34:45;;;;;;;9.27;3.92;;;;;;;12.51;81.46;101196.06;2079850;28;20032;-60
2021/06/13 03:35:46;;;;;;;;;;;;;;;12.54;81.26;101203.84;2087784;28;20033;-61
2021/06/13 03:36:49;;;;;;;11.32;4.25;;;;;;;12.55;81.11;101201.19;2087980;28;19909;-61
2021/06/13 03:37:50;;;;;;;6.82;4.20;;;;;;;12.52;81.43;101208.25;2088626;28;20055;-61
2021/06/13 03:38:52;;;;;;;;;;;;;;;12.50;81.45;101208.28;2088567;28;20028;-60
2021/06/13 03:39:53;;;;;;;5.45;3.50;;;;;;;12.51;81.80;101206.53;2088746;28;19913;-60
2021/06/13 03:40:56;;;;;;;6.90;3.67;;;;;;;12.54;81.71;101203.84;2089124;28;20032;-60
2021/06/13 03:41:57;;;;;;;10.80;3.78;;;;;;;12.53;81.37;101204.75;2088709;28;20032;-60
2021/06/13 03:42:58;;;;;;;10.07;3.92;;;;;;;12.55;81.06;101201.19;2088793;28;20021;-60
2021/06/13 03:43:59;;;;;;;8.70;3.87;;;;;;;12.56;81.03;101208.16;2088275;28;20017;-60
2021/06/13 03:45:00;;;;;;;7.50;3.83;;;;;;;12.54;81.44;101209.09;2087826;28;20108;-60
2021/06/13 03:46:01;;;;;;;9.20;4.55;;;;;;;12.55;80.95;101203.81;2088135;28;20417;-61
2021/06/13 03:47:02;;;;;;;;;;;;;;;12.54;81.29;101203.84;2088613;28;20029;-61
2021/06/13 03:48:05;;;;;;;8.88;4.30;;;;;;;12.63;80.94;101208.88;2088502;28;19908;-60
2021/06/13 03:49:07;;;;;;;7.80;3.75;;;;;;;12.63;80.90;101203.66;2088215;28;20432;-61
2021/06/13 03:50:10;;;;;;;8.40;4.10;;;;;;;12.71;81.09;101208.72;2087634;28;20529;-60
2021/06/13 03:51:12;;;;;;;8.40;3.97;;;;;;;12.74;80.58;101212.13;2087886;28;20021;-60
2021/06/13 03:52:12;;;;;;;8.00;3.80;;;;;;;12.80;79.96;101221.56;2087833;28;20025;-60
2021/06/13 03:53:13;;;;;;;11.83;4.00;;;;;;;12.84;80.21;101211.91;2088112;28;20464;-61
2021/06/13 03:54:14;;;;;;;6.07;3.95;;;;;;;12.90;79.62;101217.84;2088536;28;20017;-60
2021/06/13 03:55:15;;;;;;;9.60;3.90;;;;;;;12.96;79.64;101215.97;2088751;28;20029;-60
2021/06/13 03:56:17;;;;;;;;;;;;;;;13.01;79.60;101228.06;2089124;28;20021;-60
2021/06/13 03:57:19;;;;;;;8.75;3.60;;;;;;;13.40;78.29;101211.44;2088717;28;19908;-60
2021/06/13 03:58:26;;;;;;;9.60;3.50;;;;;;;14.35;74.77;101219.31;2088893;28;20032;-60
2021/06/13 03:59:28;;;;;;;10.73;3.90;;;;;;;15.25;70.71;101212.97;2088685;28;20123;-60
2021/06/13 04:00:30;;;;;;;9.75;4.07;;;;;;;15.97;67.64;101223.69;2086154;28;20074;-60
2021/06/13 04:01:32;;;;;;;;;;;;;;;16.33;66.42;101225.84;2086029;28;20033;-61
2021/06/13 04:02:33;;;;;;;9.43;3.53;;;;;;;16.22;66.04;101228.91;2086947;28;20442;-61
2021/06/13 04:03:33;;;;;;;8.95;3.40;;;;;;;15.79;67.52;101226.03;2087876;28;20029;-60
2021/06/13 04:04:42;;;;;;;7.97;3.22;;;;;;;16.05;66.90;101224.25;2088042;28;20568;-61
2021/06/13 04:05:45;;;;;;;7.55;3.28;;;;;;;16.19;66.02;101229.00;2079493;28;20033;-61
2021/06/13 04:06:48;;;;;;;8.93;3.10;;;;;;;16.24;65.57;101231.47;2080340;28;20032;-60
2021/06/13 04:07:48;;;;;;;6.72;3.00;;;;;;;16.22;65.29;101233.28;2081121;28;20033;-61
2021/06/13 04:08:50;;;;;;;25.40;15.70;;;;;;;16.15;65.60;101227.44;2087754;28;20051;-61
2021/06/13 04:09:51;;;;;;;12.90;6.35;;;;;;;16.18;65.33;101238.69;2087761;28;20025;-61
2021/06/13 04:10:52;;;;;;;9.07;4.73;;;;;;;15.75;66.53;101232.31;2087766;28;20016;-61
2021/06/13 04:11:54;;;;;;;9.80;3.90;;;;;;;15.51;67.76;101232.28;2087891;28;20267;-61
2021/06/13 04:12:55;;;;;;;7.20;3.47;;;;;;;15.32;68.78;101231.19;2087812;28;20513;-61
2021/06/13 04:13:57;;;;;;;7.70;3.45;;;;;;;15.14;69.43;101240.53;2087980;28;20032;-61
2021/06/13 04:14:59;;;;;;;7.72;3.63;;;;;;;14.96;69.72;101234.09;2080526;28;20026;-61
2021/06/13 04:16:04;;;;;;;8.38;3.38;;;;;;;14.79;70.59;101232.88;2087918;28;20108;-61
2021/06/13 04:17:05;;;;;;;6.10;3.15;;;;;;;14.74;71.18;101245.28;2087597;28;20025;-60
2021/06/13 04:18:08;;;;;;;9.07;3.90;;;;;;;14.51;72.00;101240.69;2080377;28;20500;-61
2021/06/13 04:19:09;;;;;;;7.55;3.40;;;;;;;14.43;72.62;101246.19;2080480;28;20060;-61
2021/06/13 04:20:11;;;;;;;11.48;3.67;;;;;;;14.36;73.43;101249.84;2080342;28;20028;-60
2021/06/13 04:21:13;;;;;;;;;;;;;;;14.34;73.41;101251.69;2081976;28;20490;-60
2021/06/13 04:22:17;;;;;;;5.97;3.38;;;;;;;14.11;74.48;101254.03;2087827;28;19913;-61
2021/06/13 04:23:17;;;;;;;11.60;3.80;;;;;;;14.22;74.01;101253.75;2088390;28;20017;-61
2021/06/13 04:24:20;;;;;;;6.27;3.50;;;;;;;14.15;74.11;101252.22;2087493;28;20024;-61
2021/06/13 04:25:21;;;;;;;8.15;3.60;;;;;;;14.15;74.14;101252.22;2087856;28;20021;-61
2021/06/13 04:26:24;;;;;;;9.70;3.65;;;;;;;14.12;73.97;101249.69;2088014;28;20032;-61
2021/06/13 04:27:27;;;;;;;9.32;3.42;;;;;;;14.12;74.15;101252.31;2086004;28;20615;-60
2021/06/13 04:28:29;;;;;;;8.13;3.60;;;;;;;14.14;74.38;101253.13;2088326;28;20021;-60
2021/06/13 04:29:29;;;;;;;8.55;3.72;;;;;;;14.15;74.06;101254.84;2088457;28;20416;-61
2021/06/13 04:30:31;;;;;;;5.83;3.37;;;;;;;14.13;74.29;101243.53;2088372;28;20029;-60
2021/06/13 04:31:31;;;;;;;9.02;3.30;;;;;;;14.15;74.41;101254.84;2087924;28;20025;-61
2021/06/13 04:32:32;;;;;;;7.50;3.60;;;;;;;14.15;74.57;101257.47;2088441;28;20435;-61
2021/06/13 04:33:35;;;;;;;8.63;3.45;;;;;;;14.11;75.46;101254.03;2088575;28;20024;-61
2021/06/13 04:34:37;;;;;;;8.73;3.65;;;;;;;14.08;74.96;101253.28;2088412;28;20028;-60
2021/06/13 04:35:38;;;;;;;6.50;3.30;;;;;;;14.12;74.92;101257.53;2088487;28;20108;-60
2021/06/13 04:36:38;;;;;;;9.17;4.00;;;;;;;14.14;74.72;101256.59;2087901;28;20501;-61
2021/06/13 04:37:38;;;;;;;5.37;3.43;;;;;;;14.15;75.31;101262.72;2088495;28;20024;-61
2021/06/13 04:38:40;;;;;;;12.10;3.50;;;;;;;14.19;74.80;101261.69;2088373;28;20029;-60
2021/06/13 04:39:40;;;;;;;8.10;3.65;;;;;;;14.23;74.08;101262.47;2088404;28;20096;-61
2021/06/13 04:40:40;;;;;;;8.27;3.87;;;;;;;14.24;74.61;101270.31;2088199;28;20481;-61
2021/06/13 04:41:41;;;;;;;7.90;3.47;;;;;;;14.25;74.12;101264.16;2087742;28;20047;-60
2021/06/13 04:42:41;;;;;;;11.67;3.50;;;;;;;14.31;74.21;101269.22;2088026;28;20098;-61
2021/06/13 04:43:42;;;;;;;9.97;3.80;;;;;;;14.35;73.54;101269.16;2087765;28;20037;-60
2021/06/13 04:44:42;;;;;;;8.57;3.58;;;;;;;14.34;73.22;101270.06;2084720;28;20702;-61
2021/06/13 04:45:43;;;;;;;8.40;3.40;;;;;;;14.35;73.92;101269.16;2088336;28;20029;-60
2021/06/13 04:46:43;;;;;;;8.07;3.60;;;;;;;14.42;73.51;101265.44;2088348;28;20020;-60
2021/06/13 04:47:43;;;;;;;10.73;3.63;;;;;;;14.51;73.51;101264.28;2088695;28;20115;-60
2021/06/13 04:48:43;;;;;;;7.77;3.83;;;;;;;14.58;73.49;101269.31;2088497;28;20021;-60
2021/06/13 04:49:45;;;;;;;7.47;3.60;;;;;;;14.62;73.18;101268.34;2088575;28;20025;-60
2021/06/13 04:50:46;;;;;;;5.45;3.25;;;;;;;14.71;72.65;101264.59;2088395;28;20092;-60
2021/06/13 04:51:50;;;;;;;8.32;4.03;;;;;;;14.81;72.09;101266.91;2087596;28;20039;-60
2021/06/13 04:52:50;;;;;;;7.72;3.38;;;;;;;14.88;71.66;101268.47;2088072;28;20025;-61